createdAt,value
2023-03-19T00:00:27.974Z,18.75
2023-03-19T00:02:54.836Z,17.25
2023-03-19T00:05:22.309Z,19.10
2023-03-19T00:07:48.769Z,20.40
2023-03-19T00:10:15.303Z,17.30
2023-03-19T00:12:41.961Z,16.88
2023-03-19T00:15:15.822Z,20.20
2023-03-19T00:17:43.062Z,17.88
2023-03-19T00:20:11.787Z,20.23
2023-03-19T00:22:39.993Z,16.02
2023-03-19T00:25:08.345Z,16.77
2023-03-19T00:27:35.349Z,21.80
2023-03-19T00:30:02.557Z,16.10
2023-03-19T00:32:30.037Z,16.33
2023-03-19T00:34:56.674Z,23.15
2023-03-19T00:37:23.486Z,16.20
2023-03-19T00:39:50.256Z,20.17
2023-03-19T00:42:16.722Z,13.60
2023-03-19T00:44:43.089Z,10.48
2023-03-19T00:47:09.917Z,15.65
2023-03-19T00:49:38.306Z,21.70
2023-03-19T00:52:05.062Z,17.55
2023-03-19T00:54:32.480Z,19.30
2023-03-19T00:56:59.077Z,16.83
2023-03-19T00:59:25.744Z,16.42
2023-03-19T01:01:52.563Z,13.55
2023-03-19T01:04:19.173Z,20.67
2023-03-19T01:06:46.203Z,10.80
2023-03-19T01:09:12.959Z,15.10
2023-03-19T01:11:39.468Z,13.32
2023-03-19T01:14:10.858Z,13.57
2023-03-19T01:16:37.446Z,13.43
2023-03-19T01:19:04.349Z,10.90
2023-03-19T01:21:31.233Z,14.00
2023-03-19T01:23:58.659Z,18.25
2023-03-19T01:26:25.451Z,13.18
2023-03-19T01:28:52.491Z,16.95
2023-03-19T01:31:19.459Z,14.13
2023-03-19T01:33:46.463Z,18.27
2023-03-19T01:36:13.244Z,17.15
2023-03-19T01:38:40.488Z,10.25
2023-03-19T01:41:07.767Z,10.93
2023-03-19T01:43:34.184Z,14.93
2023-03-19T01:46:08.260Z,12.38
2023-03-19T01:48:39.906Z,13.73
2023-03-19T01:51:11.089Z,12.80
2023-03-19T01:53:43.751Z,15.10
2023-03-19T01:56:19.416Z,15.32
2023-03-19T01:58:48.635Z,15.35
2023-03-19T02:01:15.590Z,13.38
2023-03-19T02:03:42.430Z,15.38
2023-03-19T02:06:12.297Z,16.58
2023-03-19T02:08:40.503Z,16.60
2023-03-19T02:11:08.019Z,18.42
2023-03-19T02:13:36.586Z,14.20
2023-03-19T02:16:03.284Z,14.77
2023-03-19T02:18:30.969Z,15.02
2023-03-19T02:21:06.920Z,17.40
2023-03-19T02:23:51.633Z,16.30
2023-03-19T02:26:23.689Z,20.27
2023-03-19T02:28:52.030Z,18.48
2023-03-19T02:31:19.305Z,14.38
2023-03-19T02:34:00.631Z,14.70
2023-03-19T02:36:34.000Z,14.95
2023-03-19T02:39:03.901Z,13.18
2023-03-19T02:41:33.311Z,16.77
2023-03-19T02:44:03.777Z,11.38
2023-03-19T02:46:30.231Z,14.57
2023-03-19T02:48:56.766Z,13.77
2023-03-19T02:51:23.639Z,14.95
2023-03-19T02:53:51.219Z,11.18
2023-03-19T02:56:17.912Z,13.25
2023-03-19T02:58:44.326Z,15.05
2023-03-19T03:01:10.767Z,12.07
2023-03-19T03:03:37.440Z,15.38
2023-03-19T03:06:03.999Z,12.07
2023-03-19T03:08:32.130Z,12.57
2023-03-19T03:10:58.582Z,13.35
2023-03-19T03:13:25.137Z,8.30
2023-03-19T03:15:51.691Z,10.98
2023-03-19T03:18:19.342Z,11.02
2023-03-19T03:20:45.802Z,11.35
2023-03-19T03:23:12.870Z,13.95
2023-03-19T03:25:39.236Z,9.02
2023-03-19T03:28:05.737Z,12.27
2023-03-19T03:30:32.860Z,15.48
2023-03-19T03:33:00.648Z,10.82
2023-03-19T03:35:27.428Z,9.35
2023-03-19T03:37:53.907Z,8.35
2023-03-19T03:40:21.658Z,8.45
2023-03-19T03:42:48.075Z,11.80
2023-03-19T03:45:15.347Z,12.65
2023-03-19T03:47:42.974Z,7.78
2023-03-19T03:50:11.077Z,8.82
2023-03-19T03:52:39.119Z,12.80
2023-03-19T03:55:06.204Z,9.98
2023-03-19T03:57:32.689Z,12.38
2023-03-19T03:59:59.202Z,16.63
2023-03-19T04:02:26.264Z,10.05
2023-03-19T04:04:53.451Z,12.65
2023-03-19T04:07:20.721Z,10.40
2023-03-19T04:09:47.324Z,11.77
2023-03-19T04:12:14.342Z,9.75
2023-03-19T04:14:46.859Z,9.52
2023-03-19T04:17:13.246Z,11.13
2023-03-19T04:19:40.325Z,14.30
2023-03-19T04:22:08.623Z,8.52
2023-03-19T04:24:35.172Z,9.85
2023-03-19T04:27:01.929Z,8.73
2023-03-19T04:29:28.402Z,13.82
2023-03-19T04:31:54.834Z,15.93
2023-03-19T04:34:21.271Z,13.73
2023-03-19T04:36:48.341Z,15.27
2023-03-19T04:39:14.908Z,19.00
2023-03-19T04:41:41.317Z,14.25
2023-03-19T04:44:08.025Z,15.80
2023-03-19T04:46:34.532Z,12.90
2023-03-19T04:49:01.447Z,11.40
2023-03-19T04:51:28.256Z,12.60
2023-03-19T04:53:55.060Z,9.30
2023-03-19T04:56:21.927Z,9.48
2023-03-19T04:58:48.407Z,15.20
2023-03-19T05:01:15.020Z,12.50
2023-03-19T05:03:41.485Z,8.52
2023-03-19T05:06:08.855Z,15.73
2023-03-19T05:08:35.885Z,12.63
2023-03-19T05:11:02.716Z,13.25
2023-03-19T05:13:29.345Z,12.30
2023-03-19T05:15:56.904Z,11.60
2023-03-19T05:18:23.819Z,9.68
2023-03-19T05:20:51.799Z,16.38
2023-03-19T05:23:18.428Z,18.08
2023-03-19T05:25:44.894Z,15.27
2023-03-19T05:28:12.619Z,12.95
2023-03-19T05:30:39.670Z,11.30
2023-03-19T05:33:06.321Z,12.85
2023-03-19T05:35:37.582Z,9.15
2023-03-19T05:38:04.114Z,16.70
2023-03-19T05:40:31.324Z,9.30
2023-03-19T05:42:57.893Z,11.75
2023-03-19T05:45:24.432Z,11.70
2023-03-19T05:47:50.825Z,15.02
2023-03-19T05:50:18.894Z,17.75
2023-03-19T05:52:45.805Z,11.43
2023-03-19T05:55:12.491Z,10.85
2023-03-19T05:57:39.153Z,9.38
2023-03-19T06:00:07.770Z,13.80
2023-03-19T06:02:35.969Z,11.82
2023-03-19T06:05:02.845Z,9.77
2023-03-19T06:07:29.528Z,10.00
2023-03-19T06:09:56.019Z,15.55
2023-03-19T06:12:22.577Z,12.35
2023-03-19T06:14:49.701Z,15.25
2023-03-19T06:17:16.182Z,17.10
2023-03-19T06:19:42.746Z,21.50
2023-03-19T06:22:09.442Z,12.23
2023-03-19T06:24:36.946Z,10.82
2023-03-19T06:27:10.674Z,11.88
2023-03-19T06:32:07.619Z,12.35
2023-03-19T06:34:34.044Z,10.93
2023-03-19T06:37:00.622Z,10.55
2023-03-19T06:39:27.321Z,13.68
2023-03-19T06:41:54.003Z,16.40
2023-03-19T06:44:20.451Z,8.18
2023-03-19T06:46:47.002Z,9.65
2023-03-19T06:49:13.585Z,8.45
2023-03-19T06:51:40.341Z,9.82
2023-03-19T06:54:07.490Z,11.93
2023-03-19T06:56:36.231Z,17.20
2023-03-19T06:59:02.722Z,16.25
2023-03-19T07:01:32.094Z,19.17
2023-03-19T07:03:58.675Z,19.88
2023-03-19T07:06:25.248Z,21.08
2023-03-19T07:08:51.837Z,20.83
2023-03-19T07:11:18.375Z,16.50
2023-03-19T07:13:44.764Z,17.60
2023-03-19T07:16:11.265Z,18.23
2023-03-19T07:18:37.887Z,19.58
2023-03-19T07:21:04.801Z,19.88
2023-03-19T07:23:31.580Z,16.52
2023-03-19T07:25:58.552Z,18.30
2023-03-19T07:28:25.172Z,19.38
2023-03-19T07:30:53.274Z,19.45
2023-03-19T07:33:21.997Z,25.00
2023-03-19T07:35:49.007Z,20.58
2023-03-19T07:38:17.198Z,21.05
2023-03-19T07:40:55.168Z,22.83
2023-03-19T07:45:54.177Z,25.10
2023-03-19T07:48:26.604Z,20.17
2023-03-19T07:50:54.312Z,22.47
2023-03-19T07:53:21.409Z,20.20
2023-03-19T07:55:48.279Z,19.75
2023-03-19T07:58:14.967Z,19.00
2023-03-19T08:00:41.542Z,20.27
2023-03-19T08:03:07.954Z,18.55
2023-03-19T08:05:34.601Z,15.98
2023-03-19T08:08:01.275Z,15.13
2023-03-19T08:10:27.784Z,15.93
2023-03-19T08:12:54.202Z,16.92
2023-03-19T08:15:20.725Z,14.55
2023-03-19T08:17:47.135Z,16.80
2023-03-19T08:20:18.697Z,18.55
2023-03-19T08:22:50.315Z,11.27
2023-03-19T08:25:16.798Z,16.52
2023-03-19T08:27:43.435Z,17.95
2023-03-19T08:30:11.052Z,19.10
2023-03-19T08:32:38.041Z,13.95
2023-03-19T08:35:06.158Z,18.20
2023-03-19T08:37:32.893Z,18.73
2023-03-19T08:40:00.171Z,16.83
2023-03-19T08:42:34.702Z,18.92
2023-03-19T08:45:01.127Z,16.20
2023-03-19T08:47:32.125Z,18.85
2023-03-19T08:49:58.569Z,17.17
2023-03-19T08:52:25.506Z,17.92
2023-03-19T08:54:51.882Z,8.45
2023-03-19T08:57:18.432Z,11.05
2023-03-19T08:59:44.967Z,8.80
2023-03-19T09:02:12.505Z,6.10
2023-03-19T09:04:42.945Z,8.38
2023-03-19T09:07:15.663Z,7.88
2023-03-19T09:09:44.047Z,9.23
2023-03-19T09:12:14.106Z,9.55
2023-03-19T09:14:41.216Z,8.93
2023-03-19T09:17:07.974Z,8.57
2023-03-19T09:19:35.201Z,7.00
2023-03-19T09:22:03.947Z,11.38
2023-03-19T09:24:30.326Z,8.43
2023-03-19T09:26:56.744Z,8.68
2023-03-19T09:29:23.293Z,8.82
2023-03-19T09:31:49.738Z,11.07
2023-03-19T09:34:19.447Z,7.57
2023-03-19T09:36:47.377Z,9.82
2023-03-19T09:39:16.549Z,13.10
2023-03-19T09:42:10.765Z,9.52
2023-03-19T09:47:26.821Z,14.13
2023-03-19T09:49:59.308Z,8.60
2023-03-19T09:52:41.302Z,9.48
2023-03-19T09:55:40.658Z,8.82
2023-03-19T09:58:22.173Z,7.85
2023-03-19T10:00:53.693Z,7.82
2023-03-19T10:03:45.558Z,8.70
2023-03-19T10:06:18.142Z,10.50
2023-03-19T10:08:47.856Z,7.78
2023-03-19T10:11:27.851Z,6.50
2023-03-19T10:14:14.778Z,7.28
2023-03-19T10:16:46.718Z,7.43
2023-03-19T10:19:18.590Z,7.13
2023-03-19T10:22:06.059Z,7.63
2023-03-19T10:24:37.171Z,7.55
2023-03-19T10:27:16.989Z,9.10
2023-03-19T10:29:45.043Z,7.47
2023-03-19T10:32:31.751Z,4.70
2023-03-19T10:35:01.349Z,4.38
2023-03-19T10:37:29.866Z,10.82
2023-03-19T10:39:59.536Z,7.80
2023-03-19T10:43:03.199Z,6.25
2023-03-19T10:45:39.164Z,4.05
2023-03-19T10:48:11.879Z,4.85
2023-03-19T10:50:45.612Z,4.70
2023-03-19T10:53:14.760Z,5.80
2023-03-19T10:55:58.184Z,6.72
2023-03-19T10:58:29.383Z,7.43
2023-03-19T11:01:11.104Z,10.15
2023-03-19T11:03:40.872Z,7.43
2023-03-19T11:06:18.347Z,6.53
2023-03-19T11:09:10.399Z,6.03
2023-03-19T11:11:44.065Z,7.40
2023-03-19T11:14:15.978Z,8.93
2023-03-19T11:17:04.682Z,6.50
2023-03-19T11:19:42.876Z,8.75
2023-03-19T11:22:12.453Z,8.85
2023-03-19T11:24:41.064Z,9.55
2023-03-19T11:27:09.923Z,7.05
2023-03-19T11:29:44.764Z,5.85
2023-03-19T11:32:30.715Z,6.63
2023-03-19T11:35:11.944Z,4.88
2023-03-19T11:37:48.035Z,4.55
2023-03-19T11:40:25.174Z,9.30
2023-03-19T11:43:21.298Z,9.63
2023-03-19T11:46:11.470Z,5.53
2023-03-19T11:48:58.794Z,6.68
2023-03-19T11:51:36.407Z,5.75
2023-03-19T11:54:21.470Z,8.35
2023-03-19T11:57:00.898Z,7.30
2023-03-19T11:59:44.047Z,7.20
2023-03-19T12:02:16.749Z,6.25
2023-03-19T12:05:03.816Z,9.68
2023-03-19T12:07:39.676Z,7.47
2023-03-19T12:10:28.062Z,8.80
2023-03-19T12:13:30.502Z,6.18
2023-03-19T12:16:28.906Z,10.13
2023-03-19T12:19:29.552Z,10.02
2023-03-19T12:22:19.472Z,10.77
2023-03-19T12:25:00.913Z,4.93
2023-03-19T12:27:53.382Z,6.00
2023-03-19T12:30:57.467Z,5.88
2023-03-19T12:33:30.613Z,8.23
2023-03-19T12:36:01.751Z,6.80
2023-03-19T12:38:45.784Z,5.40
2023-03-19T12:41:24.323Z,6.40
2023-03-19T12:44:12.408Z,8.40
2023-03-19T12:46:46.629Z,5.65
2023-03-19T12:49:28.476Z,6.70
2023-03-19T12:52:15.011Z,4.30
2023-03-19T12:54:46.740Z,5.07
2023-03-19T12:57:16.112Z,4.78
2023-03-19T12:59:51.727Z,4.90
2023-03-19T13:02:48.073Z,4.57
2023-03-19T13:05:14.714Z,6.72
2023-03-19T13:08:01.404Z,4.97
2023-03-19T13:10:32.552Z,6.07
2023-03-19T13:13:02.268Z,8.05
2023-03-19T13:15:36.503Z,4.00
2023-03-19T13:18:15.997Z,3.28
2023-03-19T13:21:01.300Z,6.60
2023-03-19T13:23:32.459Z,4.63
2023-03-19T13:26:00.639Z,3.47
2023-03-19T13:28:30.747Z,3.28
2023-03-19T13:31:07.171Z,5.43
2023-03-19T13:33:37.562Z,2.80
2023-03-19T13:36:14.582Z,5.95
2023-03-19T13:38:49.093Z,5.38
2023-03-19T13:41:44.929Z,7.10
2023-03-19T13:44:30.490Z,7.90
2023-03-19T13:47:00.740Z,4.38
2023-03-19T13:49:33.485Z,4.75
2023-03-19T13:52:04.805Z,5.63
2023-03-19T13:54:45.954Z,9.88
2023-03-19T13:57:15.899Z,4.90
2023-03-19T13:59:46.732Z,6.90
2023-03-19T14:02:22.398Z,7.10
2023-03-19T14:05:04.521Z,7.70
2023-03-19T14:07:40.464Z,3.35
2023-03-19T14:10:29.876Z,8.57
2023-03-19T14:13:14.318Z,6.07
2023-03-19T14:15:48.103Z,3.80
2023-03-19T14:18:20.862Z,4.68
2023-03-19T14:20:56.823Z,4.82
2023-03-19T14:23:40.574Z,7.63
2023-03-19T14:26:16.375Z,28.00
2023-03-19T14:28:51.776Z,10.88
2023-03-19T14:31:33.628Z,12.13
2023-03-19T14:34:07.934Z,9.63
2023-03-19T14:36:38.325Z,9.05
2023-03-19T14:39:24.997Z,5.82
2023-03-19T14:42:06.334Z,4.40
2023-03-19T14:44:35.662Z,4.45
2023-03-19T14:47:39.784Z,7.38
2023-03-19T14:50:27.471Z,7.50
2023-03-19T14:53:14.518Z,4.57
2023-03-19T14:55:42.218Z,5.80
2023-03-19T14:58:12.856Z,7.15
2023-03-19T15:00:46.917Z,7.45
2023-03-19T15:03:21.983Z,8.90
2023-03-19T15:05:51.117Z,7.47
2023-03-19T15:08:26.527Z,7.55
2023-03-19T15:11:14.452Z,6.63
2023-03-19T15:13:51.046Z,3.47
2023-03-19T15:16:40.061Z,5.25
2023-03-19T15:19:09.927Z,5.43
2023-03-19T15:21:38.031Z,4.95
2023-03-19T15:24:07.071Z,4.78
2023-03-19T15:26:37.647Z,4.68
2023-03-19T15:29:04.659Z,5.45
2023-03-19T15:31:51.725Z,3.15
2023-03-19T15:34:35.451Z,6.53
2023-03-19T15:37:13.776Z,4.82
2023-03-19T15:39:45.507Z,2.70
2023-03-19T15:42:14.289Z,5.10
2023-03-19T15:44:46.882Z,4.57
2023-03-19T15:47:24.770Z,3.70
2023-03-19T15:50:07.567Z,2.95
2023-03-19T15:52:38.716Z,3.97
2023-03-19T15:55:06.819Z,2.97
2023-03-19T15:57:36.531Z,3.95
2023-03-19T16:00:06.300Z,4.65
2023-03-19T16:02:35.040Z,2.70
2023-03-19T16:05:20.889Z,4.05
2023-03-19T16:07:55.294Z,6.57
2023-03-19T16:10:27.944Z,5.22
2023-03-19T16:12:55.946Z,4.75
2023-03-19T16:15:30.318Z,4.85
2023-03-19T16:18:22.462Z,6.13
2023-03-19T16:21:08.646Z,4.35
2023-03-19T16:23:45.840Z,7.97
2023-03-19T16:26:22.496Z,5.45
2023-03-19T16:28:59.299Z,3.47
2023-03-19T16:31:30.285Z,7.25
2023-03-19T16:33:57.100Z,4.43
2023-03-19T16:36:27.778Z,3.05
2023-03-19T16:38:58.225Z,4.22
2023-03-19T16:41:26.622Z,5.65
2023-03-19T16:43:54.469Z,6.32
2023-03-19T16:46:21.379Z,3.38
2023-03-19T16:48:47.918Z,3.35
2023-03-19T16:51:18.395Z,5.63
2023-03-19T16:53:46.259Z,4.80
2023-03-19T16:56:20.207Z,3.10
2023-03-19T16:58:48.223Z,3.78
2023-03-19T17:01:18.081Z,6.07
2023-03-19T17:03:45.766Z,6.55
2023-03-19T17:06:14.113Z,5.75
2023-03-19T17:08:41.782Z,10.38
2023-03-19T17:11:28.343Z,12.77
2023-03-19T17:13:57.633Z,9.60
2023-03-19T17:16:24.483Z,7.68
2023-03-19T17:18:51.157Z,7.00
2023-03-19T17:21:33.293Z,7.93
2023-03-19T17:24:15.311Z,6.93
2023-03-19T17:26:41.820Z,8.45
2023-03-19T17:29:08.298Z,6.18
2023-03-19T17:31:35.445Z,10.73
2023-03-19T17:34:10.465Z,7.78
2023-03-19T17:36:37.530Z,10.65
2023-03-19T17:39:07.053Z,9.77
2023-03-19T17:41:35.424Z,10.75
2023-03-19T17:44:06.615Z,9.00
2023-03-19T17:47:00.028Z,8.15
2023-03-19T17:49:30.049Z,11.13
2023-03-19T17:51:57.177Z,6.30
2023-03-19T17:54:25.897Z,9.55
2023-03-19T17:56:53.121Z,7.57
2023-03-19T17:59:19.703Z,11.85
2023-03-19T18:01:48.780Z,7.90
2023-03-19T18:04:20.704Z,8.75
2023-03-19T18:06:54.339Z,11.32
2023-03-19T18:09:28.321Z,13.98
2023-03-19T18:11:55.568Z,7.35
2023-03-19T18:14:22.031Z,12.82
2023-03-19T18:16:48.725Z,11.07
2023-03-19T18:19:24.993Z,16.95
2023-03-19T18:21:51.713Z,14.48
2023-03-19T18:24:18.158Z,11.60
2023-03-19T18:26:44.637Z,16.00
2023-03-19T18:29:11.405Z,21.27
2023-03-19T18:31:38.455Z,14.07
2023-03-19T18:34:08.057Z,17.05
2023-03-19T18:36:36.353Z,12.00
2023-03-19T18:39:03.503Z,11.10
2023-03-19T18:41:31.292Z,12.93
2023-03-19T18:43:57.932Z,12.82
2023-03-19T18:46:29.916Z,8.70
2023-03-19T18:49:00.150Z,9.45
2023-03-19T18:51:27.631Z,6.97
2023-03-19T18:53:55.264Z,8.85
2023-03-19T18:56:28.162Z,12.10
2023-03-19T18:58:56.322Z,13.07
2023-03-19T19:01:23.108Z,13.23
2023-03-19T19:03:50.150Z,11.00
2023-03-19T19:06:40.086Z,12.10
2023-03-19T19:09:12.759Z,12.30
2023-03-19T19:11:42.166Z,10.25
2023-03-19T19:14:21.952Z,12.88
2023-03-19T19:16:49.130Z,11.45
2023-03-19T19:19:18.678Z,10.20
2023-03-19T19:21:45.512Z,15.27
2023-03-19T19:24:14.868Z,11.45
2023-03-19T19:26:44.258Z,23.02
2023-03-19T19:29:17.526Z,12.65
2023-03-19T19:31:44.114Z,9.38
2023-03-19T19:34:15.711Z,8.65
2023-03-19T19:36:42.912Z,9.60
2023-03-19T19:39:10.560Z,8.60
2023-03-19T19:41:38.810Z,8.82
2023-03-19T19:44:05.935Z,8.52
2023-03-19T19:46:32.543Z,8.45
2023-03-19T19:48:59.402Z,7.43
2023-03-19T19:51:28.249Z,8.35
2023-03-19T19:53:55.213Z,9.98
2023-03-19T19:56:25.278Z,8.10
2023-03-19T19:58:54.047Z,7.90
2023-03-19T20:01:23.441Z,7.57
2023-03-19T20:03:50.597Z,7.15
2023-03-19T20:06:17.225Z,11.57
2023-03-19T20:08:44.415Z,9.70
2023-03-19T20:11:23.364Z,11.40
2023-03-19T20:13:55.560Z,7.00
2023-03-19T20:16:24.755Z,10.93
2023-03-19T20:18:53.729Z,10.00
2023-03-19T20:21:20.663Z,8.20
2023-03-19T20:23:48.266Z,8.57
2023-03-19T20:26:19.262Z,9.35
2023-03-19T20:28:46.719Z,9.15
2023-03-19T20:31:23.993Z,10.18
2023-03-19T20:33:50.412Z,9.50
2023-03-19T20:36:17.357Z,11.73
2023-03-19T20:38:44.037Z,18.67
2023-03-19T20:41:20.197Z,10.23
2023-03-19T20:43:47.553Z,9.65
2023-03-19T20:46:15.270Z,12.63
2023-03-19T20:48:41.780Z,6.85
2023-03-19T20:51:17.434Z,8.82
2023-03-19T20:53:44.368Z,7.57
2023-03-19T20:56:16.022Z,9.70
2023-03-19T20:58:42.540Z,5.28
2023-03-19T21:01:10.694Z,4.00
2023-03-19T21:03:38.112Z,9.70
2023-03-19T21:06:11.450Z,6.20
2023-03-19T21:08:44.448Z,8.60
2023-03-19T21:11:39.268Z,13.10
2023-03-19T21:14:06.403Z,16.60
2023-03-19T21:16:34.015Z,14.73
2023-03-19T21:19:00.525Z,17.58
2023-03-19T21:21:33.383Z,15.43
2023-03-19T21:24:11.377Z,13.88
2023-03-19T21:26:40.326Z,8.70
2023-03-19T21:29:13.170Z,9.85
2023-03-19T21:31:39.761Z,7.87
2023-03-19T21:34:06.350Z,8.98
2023-03-19T21:36:33.400Z,8.48
2023-03-19T21:38:59.831Z,13.38
2023-03-19T21:41:30.378Z,12.82
2023-03-19T21:43:59.434Z,11.95
2023-03-19T21:46:28.930Z,14.43
2023-03-19T21:48:57.045Z,9.23
2023-03-19T21:51:25.188Z,14.40
2023-03-19T21:53:52.230Z,10.27
2023-03-19T21:56:25.596Z,8.40
2023-03-19T21:58:53.086Z,7.38
2023-03-19T22:01:23.728Z,10.63
2023-03-19T22:03:52.019Z,7.75
2023-03-19T22:06:19.858Z,11.25
2023-03-19T22:08:49.051Z,7.93
2023-03-19T22:11:19.750Z,9.30
2023-03-19T22:13:47.328Z,9.40
2023-03-19T22:16:20.985Z,7.53
2023-03-19T22:21:19.652Z,5.45
2023-03-19T22:23:47.166Z,5.93
2023-03-19T22:26:31.846Z,4.22
2023-03-19T22:29:01.086Z,5.57
2023-03-19T22:31:28.514Z,6.68
2023-03-19T22:33:55.530Z,4.57
2023-03-19T22:36:23.462Z,3.58
2023-03-19T22:38:50.664Z,4.05
2023-03-19T22:41:29.365Z,3.83
2023-03-19T22:43:58.494Z,4.03
2023-03-19T22:46:25.617Z,3.08
2023-03-19T22:48:53.088Z,4.43
2023-03-19T22:51:23.875Z,3.88
2023-03-19T22:53:51.760Z,4.53
2023-03-19T22:56:19.662Z,4.38
2023-03-19T22:58:47.002Z,4.75
2023-03-19T23:01:23.139Z,7.40
2023-03-19T23:03:50.580Z,3.53
2023-03-19T23:06:29.742Z,6.10
2023-03-19T23:08:57.416Z,7.40
2023-03-19T23:11:24.446Z,2.90
2023-03-19T23:13:51.520Z,4.22
2023-03-19T23:16:24.141Z,7.55
2023-03-19T23:18:51.564Z,3.47
2023-03-19T23:21:27.010Z,7.38
2023-03-19T23:23:53.603Z,2.60
2023-03-19T23:26:27.211Z,4.88
2023-03-19T23:31:21.128Z,4.70
2023-03-19T23:33:51.316Z,5.20
2023-03-19T23:36:21.019Z,3.65
2023-03-19T23:38:47.680Z,4.93
2023-03-19T23:41:25.012Z,2.97
2023-03-19T23:43:52.897Z,3.75
2023-03-19T23:46:20.819Z,4.93
2023-03-19T23:48:47.499Z,3.50
2023-03-19T23:51:15.804Z,4.60
2023-03-19T23:53:43.649Z,4.70
2023-03-19T23:56:26.115Z,6.07
